createdAt,value
2018-09-13T00:02:22.803Z,16.20
2018-09-13T00:04:50.916Z,16.20
2018-09-13T00:07:19.017Z,16.10
2018-09-13T00:09:47.105Z,16.00
2018-09-13T00:12:15.239Z,16.00
2018-09-13T00:14:43.334Z,16.00
2018-09-13T00:17:11.413Z,16.00
2018-09-13T00:19:39.511Z,16.00
2018-09-13T00:22:07.607Z,16.00
2018-09-13T00:24:35.693Z,16.00
2018-09-13T00:27:03.792Z,15.90
2018-09-13T00:29:31.883Z,15.90
2018-09-13T00:31:59.984Z,15.90
2018-09-13T00:34:28.065Z,15.90
2018-09-13T00:36:56.150Z,15.90
2018-09-13T00:39:24.244Z,15.90
2018-09-13T00:41:52.340Z,15.80
2018-09-13T00:44:20.428Z,15.80
2018-09-13T00:46:48.527Z,15.80
2018-09-13T00:49:16.615Z,15.80
2018-09-13T00:51:44.698Z,15.80
2018-09-13T00:54:12.802Z,15.80
2018-09-13T00:56:40.895Z,15.70
2018-09-13T00:59:09.008Z,15.70
2018-09-13T01:01:37.116Z,15.70
2018-09-13T01:04:05.298Z,15.80
2018-09-13T01:06:33.663Z,15.80
2018-09-13T01:09:01.795Z,15.80
2018-09-13T01:11:29.971Z,15.80
2018-09-13T01:13:58.124Z,15.80
2018-09-13T01:16:26.258Z,15.80
2018-09-13T01:18:54.407Z,15.80
2018-09-13T01:21:22.641Z,15.80
2018-09-13T01:23:50.787Z,15.70
2018-09-13T01:26:18.913Z,15.80
2018-09-13T01:28:47.075Z,15.70
2018-09-13T01:31:15.212Z,15.70
2018-09-13T01:33:43.344Z,15.70
2018-09-13T01:36:11.488Z,15.60
2018-09-13T01:38:39.640Z,15.60
2018-09-13T01:41:07.761Z,15.60
2018-09-13T01:43:35.904Z,15.70
2018-09-13T01:46:04.070Z,15.70
2018-09-13T01:48:32.206Z,15.80
2018-09-13T01:51:00.342Z,15.70
2018-09-13T01:53:28.499Z,15.70
2018-09-13T01:55:56.644Z,15.70
2018-09-13T01:58:24.770Z,15.60
2018-09-13T02:00:52.955Z,15.70
2018-09-13T02:03:21.056Z,15.60
2018-09-13T02:05:49.361Z,15.50
2018-09-13T02:08:17.489Z,15.50
2018-09-13T02:10:45.583Z,15.50
2018-09-13T02:13:13.695Z,15.50
2018-09-13T02:15:41.796Z,15.60
2018-09-13T02:18:09.900Z,15.60
2018-09-13T02:20:38.199Z,15.60
2018-09-13T02:23:06.298Z,15.60
2018-09-13T02:25:34.392Z,15.50
2018-09-13T02:28:02.502Z,15.50
2018-09-13T02:30:30.584Z,15.50
2018-09-13T02:32:58.712Z,15.50
2018-09-13T02:35:26.816Z,15.50
2018-09-13T02:37:54.920Z,15.50
2018-09-13T02:40:23.044Z,15.60
2018-09-13T02:42:51.156Z,15.50
2018-09-13T02:45:19.229Z,15.50
2018-09-13T02:47:47.342Z,15.50
2018-09-13T02:50:15.430Z,15.50
2018-09-13T02:52:43.522Z,15.50
2018-09-13T02:55:11.616Z,15.50
2018-09-13T02:57:39.696Z,15.50
2018-09-13T03:00:08.459Z,15.50
2018-09-13T03:02:36.678Z,15.50
2018-09-13T03:05:04.823Z,15.50
2018-09-13T03:07:32.975Z,15.50
2018-09-13T03:10:01.109Z,15.50
2018-09-13T03:12:29.244Z,15.40
2018-09-13T03:14:57.392Z,15.40
2018-09-13T03:17:25.551Z,15.40
2018-09-13T03:19:53.716Z,15.30
2018-09-13T03:22:21.856Z,15.30
2018-09-13T03:24:49.996Z,15.20
2018-09-13T03:27:18.121Z,15.20
2018-09-13T03:29:46.295Z,15.10
2018-09-13T03:32:14.438Z,15.10
2018-09-13T03:34:42.633Z,15.00
2018-09-13T03:37:10.756Z,15.10
2018-09-13T03:39:38.905Z,15.20
2018-09-13T03:42:07.207Z,15.20
2018-09-13T03:44:35.230Z,15.20
2018-09-13T03:47:03.374Z,15.10
2018-09-13T03:49:31.515Z,15.10
2018-09-13T03:51:59.651Z,15.00
2018-09-13T03:54:27.799Z,15.00
2018-09-13T03:56:55.941Z,15.00
2018-09-13T03:59:24.082Z,15.00
2018-09-13T04:01:52.228Z,15.00
2018-09-13T04:04:20.317Z,15.00
2018-09-13T04:06:48.431Z,15.00
2018-09-13T04:09:16.539Z,14.90
2018-09-13T04:11:44.623Z,15.00
2018-09-13T04:14:12.720Z,15.10
2018-09-13T04:16:40.819Z,15.10
2018-09-13T04:19:08.911Z,15.10
2018-09-13T04:21:37.016Z,15.20
2018-09-13T04:24:05.380Z,15.10
2018-09-13T04:26:33.457Z,15.20
2018-09-13T04:29:01.552Z,15.20
2018-09-13T04:31:29.651Z,15.20
2018-09-13T04:33:57.746Z,15.20
2018-09-13T04:36:25.864Z,15.20
2018-09-13T04:38:54.208Z,15.20
2018-09-13T04:41:22.494Z,15.10
2018-09-13T04:43:50.587Z,15.10
2018-09-13T04:46:18.698Z,15.10
2018-09-13T04:48:46.780Z,15.10
2018-09-13T04:51:14.883Z,15.20
2018-09-13T04:53:42.965Z,15.10
2018-09-13T04:56:11.198Z,15.20
2018-09-13T04:58:40.270Z,15.20
2018-09-13T05:01:09.094Z,15.20
2018-09-13T05:03:38.036Z,15.20
2018-09-13T05:06:06.375Z,15.20
2018-09-13T05:08:34.453Z,15.20
2018-09-13T05:11:02.563Z,15.10
2018-09-13T05:13:30.792Z,15.10
2018-09-13T05:15:59.492Z,15.10
2018-09-13T05:18:28.473Z,15.10
2018-09-13T05:20:56.565Z,15.10
2018-09-13T05:23:24.672Z,15.10
2018-09-13T05:25:52.775Z,15.10
2018-09-13T05:28:20.892Z,15.10
2018-09-13T05:30:48.991Z,15.10
2018-09-13T05:33:17.077Z,15.10
2018-09-13T05:35:45.192Z,15.00
2018-09-13T05:38:13.293Z,15.00
2018-09-13T05:40:41.385Z,15.00
2018-09-13T05:43:09.473Z,15.00
2018-09-13T05:45:37.569Z,15.00
2018-09-13T05:48:05.665Z,15.00
2018-09-13T05:50:33.755Z,15.00
2018-09-13T05:53:01.852Z,15.00
2018-09-13T05:55:29.947Z,15.00
2018-09-13T05:57:58.108Z,14.90
2018-09-13T06:03:00.818Z,14.80
2018-09-13T06:05:28.919Z,14.80
2018-09-13T06:07:57.446Z,14.80
2018-09-13T06:10:25.520Z,14.80
2018-09-13T06:12:53.623Z,14.80
2018-09-13T06:15:21.710Z,14.70
2018-09-13T06:17:49.808Z,14.70
2018-09-13T06:20:17.896Z,14.70
2018-09-13T06:22:53.024Z,14.70
2018-09-13T06:25:21.115Z,14.70
2018-09-13T06:27:49.210Z,14.70
2018-09-13T06:30:17.304Z,14.60
2018-09-13T06:32:45.399Z,14.60
2018-09-13T06:35:13.491Z,14.60
2018-09-13T06:37:41.604Z,14.60
2018-09-13T06:40:09.698Z,14.60
2018-09-13T06:42:37.912Z,14.70
2018-09-13T06:45:06.395Z,14.80
2018-09-13T06:47:34.679Z,14.80
2018-09-13T06:50:02.808Z,14.80
2018-09-13T06:52:30.913Z,14.80
2018-09-13T06:54:59.008Z,14.80
2018-09-13T06:57:27.108Z,14.90
2018-09-13T06:59:55.217Z,14.90
2018-09-13T07:02:23.402Z,15.00
2018-09-13T07:04:51.688Z,15.00
2018-09-13T07:07:19.815Z,15.00
2018-09-13T07:09:47.929Z,14.90
2018-09-13T07:12:16.058Z,15.00
2018-09-13T07:14:44.179Z,15.00
2018-09-13T07:17:12.308Z,15.00
2018-09-13T07:19:40.616Z,15.00
2018-09-13T07:22:08.768Z,14.90
2018-09-13T07:24:36.884Z,15.00
2018-09-13T07:27:05.007Z,14.90
2018-09-13T07:29:33.135Z,14.90
2018-09-13T07:32:01.237Z,14.90
2018-09-13T07:34:29.366Z,14.90
2018-09-13T07:36:57.484Z,14.90
2018-09-13T07:39:25.606Z,14.90
2018-09-13T07:41:53.748Z,14.90
2018-09-13T07:44:21.853Z,14.90
2018-09-13T07:46:49.979Z,14.90
2018-09-13T07:49:18.165Z,15.00
2018-09-13T07:51:46.209Z,15.00
2018-09-13T07:54:14.338Z,15.00
2018-09-13T07:56:42.455Z,15.10
2018-09-13T07:59:10.565Z,15.00
2018-09-13T08:01:38.691Z,15.10
2018-09-13T08:04:07.331Z,15.10
2018-09-13T08:06:35.644Z,15.10
2018-09-13T08:09:05.845Z,15.00
2018-09-13T08:11:33.953Z,15.10
2018-09-13T08:14:02.079Z,15.20
2018-09-13T08:16:30.196Z,15.20
2018-09-13T08:18:58.324Z,15.30
2018-09-13T08:21:26.446Z,15.30
2018-09-13T08:23:54.541Z,15.30
2018-09-13T08:26:22.642Z,15.40
2018-09-13T08:28:50.857Z,15.40
2018-09-13T08:31:18.965Z,15.40
2018-09-13T08:33:47.081Z,15.30
2018-09-13T08:36:15.193Z,15.30
2018-09-13T08:38:43.328Z,15.30
2018-09-13T08:41:11.451Z,15.20
2018-09-13T08:43:39.573Z,15.30
2018-09-13T08:46:07.684Z,15.30
2018-09-13T08:48:35.797Z,15.30
2018-09-13T08:51:03.916Z,15.30
2018-09-13T08:53:32.074Z,15.30
2018-09-13T08:56:00.210Z,15.40
2018-09-13T08:58:28.344Z,15.40
2018-09-13T09:00:56.677Z,15.40
2018-09-13T09:03:24.808Z,15.40
2018-09-13T09:05:52.938Z,15.40
2018-09-13T09:08:21.061Z,15.50
2018-09-13T09:10:49.183Z,15.50
2018-09-13T09:13:17.312Z,15.60
2018-09-13T09:15:45.431Z,15.70
2018-09-13T09:18:13.539Z,15.70
2018-09-13T09:20:41.650Z,15.70
2018-09-13T09:23:09.775Z,15.70
2018-09-13T09:25:37.901Z,15.70
2018-09-13T09:28:06.031Z,15.80
2018-09-13T09:30:34.312Z,15.80
2018-09-13T09:33:02.444Z,15.90
2018-09-13T09:35:30.583Z,15.90
2018-09-13T09:37:58.666Z,16.00
2018-09-13T09:40:26.830Z,16.00
2018-09-13T09:42:54.943Z,15.90
2018-09-13T09:45:23.064Z,15.90
2018-09-13T09:47:51.173Z,15.90
2018-09-13T09:50:19.346Z,15.90
2018-09-13T09:52:47.492Z,16.00
2018-09-13T09:55:19.885Z,16.00
2018-09-13T09:57:48.028Z,16.10
2018-09-13T10:00:16.128Z,16.00
2018-09-13T10:02:44.251Z,15.90
2018-09-13T10:08:15.857Z,16.00
2018-09-13T10:10:43.945Z,16.00
2018-09-13T10:13:12.045Z,16.10
2018-09-13T10:15:45.588Z,16.10
2018-09-13T10:18:18.977Z,16.10
2018-09-13T10:20:52.485Z,16.20
2018-09-13T10:23:26.164Z,16.20
2018-09-13T10:25:59.742Z,16.20
2018-09-13T10:28:33.345Z,16.10
2018-09-13T10:32:07.778Z,16.20
2018-09-13T10:34:41.464Z,16.10
2018-09-13T10:37:14.910Z,16.10
2018-09-13T10:39:48.450Z,16.10
2018-09-13T10:42:22.101Z,16.10
2018-09-13T10:45:55.444Z,16.20
2018-09-13T10:48:27.201Z,16.20
2018-09-13T10:51:00.679Z,16.10
2018-09-13T10:53:36.085Z,16.10
2018-09-13T10:56:05.101Z,16.20
2018-09-13T10:58:33.941Z,16.20
2018-09-13T11:01:02.117Z,16.30
2018-09-13T11:03:30.204Z,16.40
2018-09-13T11:05:58.296Z,16.50
2018-09-13T11:08:26.516Z,16.50
2018-09-13T11:10:54.778Z,16.40
2018-09-13T11:13:28.934Z,16.50
2018-09-13T11:15:57.008Z,16.60
2018-09-13T11:18:25.096Z,16.60
2018-09-13T11:20:53.182Z,16.60
2018-09-13T11:23:21.265Z,16.70
2018-09-13T11:25:49.397Z,16.80
2018-09-13T11:28:17.490Z,16.90
2018-09-13T11:30:49.828Z,16.90
2018-09-13T11:33:17.926Z,16.90
2018-09-13T11:35:46.028Z,16.80
2018-09-13T11:38:14.152Z,17.00
2018-09-13T11:40:42.442Z,17.00
2018-09-13T11:43:10.331Z,17.10
2018-09-13T11:45:38.430Z,17.10
2018-09-13T11:48:06.531Z,17.30
2018-09-13T11:50:34.629Z,17.40
2018-09-13T11:53:02.712Z,17.40
2018-09-13T11:55:30.788Z,17.30
2018-09-13T11:57:58.881Z,17.30
2018-09-13T12:00:27.293Z,17.20
2018-09-13T12:02:55.410Z,17.20
2018-09-13T12:05:23.509Z,17.10
2018-09-13T12:07:51.629Z,17.10
2018-09-13T12:10:19.733Z,17.10
2018-09-13T12:12:47.930Z,17.10
2018-09-13T12:15:16.242Z,17.10
2018-09-13T12:17:44.390Z,17.00
2018-09-13T12:20:12.484Z,16.90
2018-09-13T12:22:40.570Z,16.90
2018-09-13T12:25:08.683Z,17.00
2018-09-13T12:27:36.844Z,17.00
2018-09-13T12:30:05.220Z,16.90
2018-09-13T12:32:33.358Z,16.80
2018-09-13T12:35:01.413Z,16.70
2018-09-13T12:37:29.491Z,16.70
2018-09-13T12:39:57.592Z,16.70
2018-09-13T12:42:25.752Z,16.80
2018-09-13T12:44:53.892Z,16.90
2018-09-13T12:47:21.968Z,17.00
2018-09-13T12:49:51.140Z,17.00
2018-09-13T12:52:19.288Z,16.90
2018-09-13T12:54:47.345Z,16.90
2018-09-13T12:57:15.465Z,16.90
2018-09-13T12:59:43.577Z,16.90
2018-09-13T13:02:11.716Z,16.80
2018-09-13T13:04:40.620Z,16.60
2018-09-13T13:07:15.116Z,16.50
2018-09-13T13:09:43.245Z,16.60
2018-09-13T13:12:11.390Z,16.60
2018-09-13T13:14:39.488Z,16.70
2018-09-13T13:17:07.589Z,16.70
2018-09-13T13:19:35.682Z,16.70
2018-09-13T13:22:03.915Z,16.70
2018-09-13T13:24:31.999Z,16.80
2018-09-13T13:27:00.107Z,16.80
2018-09-13T13:29:28.217Z,16.80
2018-09-13T13:31:56.284Z,16.70
2018-09-13T13:36:58.875Z,16.70
2018-09-13T13:39:26.968Z,16.70
2018-09-13T13:41:55.099Z,16.80
2018-09-13T13:44:23.199Z,16.90
2018-09-13T13:46:51.295Z,16.90
2018-09-13T13:49:19.437Z,17.00
2018-09-13T13:51:47.492Z,16.90
2018-09-13T13:54:15.576Z,16.90
2018-09-13T13:56:43.768Z,16.90
2018-09-13T13:59:11.839Z,17.00
2018-09-13T14:01:39.934Z,17.00
2018-09-13T14:04:08.042Z,17.00
2018-09-13T14:06:36.152Z,16.90
2018-09-13T14:09:08.292Z,16.80
2018-09-13T14:11:36.404Z,16.80
2018-09-13T14:14:04.516Z,16.80
2018-09-13T14:16:32.625Z,16.70
2018-09-13T14:19:00.727Z,16.50
2018-09-13T14:21:28.831Z,16.40
2018-09-13T14:23:56.954Z,16.50
2018-09-13T14:26:25.045Z,16.60
2018-09-13T14:28:53.216Z,16.70
2018-09-13T14:31:21.329Z,16.80
2018-09-13T14:33:49.420Z,16.80
2018-09-13T14:36:17.511Z,16.80
2018-09-13T14:38:45.607Z,16.80
2018-09-13T14:41:13.739Z,16.80
2018-09-13T14:43:41.814Z,16.80
2018-09-13T14:46:09.905Z,16.90
2018-09-13T14:48:38.026Z,17.00
2018-09-13T14:51:06.287Z,17.10
2018-09-13T14:53:34.410Z,17.00
2018-09-13T14:56:02.495Z,17.00
2018-09-13T14:58:30.562Z,17.00
2018-09-13T15:00:58.653Z,17.00
2018-09-13T15:03:26.839Z,17.10
2018-09-13T15:05:55.014Z,17.10
2018-09-13T15:08:23.131Z,17.10
2018-09-13T15:10:51.237Z,17.10
2018-09-13T15:13:20.177Z,17.20
2018-09-13T15:15:48.312Z,17.20
2018-09-13T15:18:16.446Z,17.30
2018-09-13T15:20:44.543Z,17.40
2018-09-13T15:23:12.684Z,17.30
2018-09-13T15:25:40.797Z,17.40
2018-09-13T15:28:08.953Z,17.40
2018-09-13T15:30:37.055Z,17.50
2018-09-13T15:33:05.165Z,17.50
2018-09-13T15:38:07.718Z,17.40
2018-09-13T15:40:35.830Z,17.30
2018-09-13T15:43:09.655Z,17.40
2018-09-13T15:45:37.782Z,17.40
2018-09-13T15:48:05.863Z,17.40
2018-09-13T15:50:33.990Z,17.30
2018-09-13T15:53:02.140Z,17.30
2018-09-13T15:55:30.415Z,17.30
2018-09-13T15:57:58.558Z,17.40
2018-09-13T16:00:26.653Z,17.40
2018-09-13T16:02:54.775Z,17.40
2018-09-13T16:05:22.880Z,17.40
2018-09-13T16:07:50.980Z,17.30
2018-09-13T16:12:53.836Z,17.30
2018-09-13T16:15:21.884Z,17.30
2018-09-13T16:17:49.982Z,17.40
2018-09-13T16:20:18.076Z,17.40
2018-09-13T16:22:46.180Z,17.40
2018-09-13T16:25:14.273Z,17.40
2018-09-13T16:27:42.395Z,17.40
2018-09-13T16:30:10.483Z,17.40
2018-09-13T16:32:38.583Z,17.50
2018-09-13T16:35:06.987Z,17.40
2018-09-13T16:37:40.307Z,17.40
2018-09-13T16:40:13.828Z,17.40
2018-09-13T16:47:05.247Z,17.40
2018-09-13T16:49:33.917Z,17.30
2018-09-13T16:52:02.014Z,17.40
2018-09-13T16:54:30.158Z,17.40
2018-09-13T16:56:58.266Z,17.50
2018-09-13T16:59:26.377Z,17.50
2018-09-13T17:01:54.475Z,17.50
2018-09-13T17:04:22.593Z,17.40
2018-09-13T17:06:50.767Z,17.40
2018-09-13T17:09:18.840Z,17.40
2018-09-13T17:11:46.949Z,17.30
2018-09-13T17:14:15.061Z,17.40
2018-09-13T17:16:43.197Z,17.40
2018-09-13T17:19:11.334Z,17.40
2018-09-13T17:21:39.508Z,17.30
2018-09-13T17:24:07.633Z,17.40
2018-09-13T17:26:35.759Z,17.40
2018-09-13T17:29:03.881Z,17.40
2018-09-13T17:31:32.045Z,17.40
2018-09-13T17:34:00.326Z,17.30
2018-09-13T17:36:35.075Z,17.40
2018-09-13T17:39:03.235Z,17.30
2018-09-13T17:41:31.353Z,17.40
2018-09-13T17:43:59.464Z,17.40
2018-09-13T17:46:27.565Z,17.40
2018-09-13T17:48:55.676Z,17.30
2018-09-13T17:51:23.780Z,17.30
2018-09-13T17:53:51.889Z,17.30
2018-09-13T17:56:20.028Z,17.30
2018-09-13T17:58:48.379Z,17.30
2018-09-13T18:01:16.536Z,17.20
2018-09-13T18:03:44.771Z,17.20
2018-09-13T18:06:12.858Z,17.10
2018-09-13T18:08:40.932Z,17.10
2018-09-13T18:11:09.032Z,17.10
2018-09-13T18:13:37.167Z,17.10
2018-09-13T18:16:05.260Z,17.10
2018-09-13T18:18:33.348Z,17.10
2018-09-13T18:21:01.459Z,17.00
2018-09-13T18:23:29.696Z,17.00
2018-09-13T18:25:57.888Z,17.00
2018-09-13T18:28:26.114Z,16.90
2018-09-13T18:30:54.315Z,16.90
2018-09-13T18:33:22.710Z,16.90
2018-09-13T18:35:51.285Z,16.90
2018-09-13T18:38:19.391Z,16.90
2018-09-13T18:40:47.530Z,16.80
2018-09-13T18:43:15.620Z,16.80
2018-09-13T18:45:43.999Z,16.70
2018-09-13T18:48:12.156Z,16.70
2018-09-13T18:50:40.290Z,16.70
2018-09-13T18:53:08.446Z,16.60
2018-09-13T18:55:36.551Z,16.50
2018-09-13T18:58:04.632Z,16.40
2018-09-13T19:00:32.792Z,16.50
2018-09-13T19:03:00.878Z,16.40
2018-09-13T19:05:29.331Z,16.40
2018-09-13T19:07:57.421Z,16.40
2018-09-13T19:10:25.542Z,16.30
2018-09-13T19:12:53.688Z,16.30
2018-09-13T19:15:21.830Z,16.20
2018-09-13T19:17:49.953Z,16.10
2018-09-13T19:20:24.465Z,16.00
2018-09-13T19:22:53.104Z,16.00
2018-09-13T19:25:21.447Z,16.00
2018-09-13T19:27:49.891Z,15.90
2018-09-13T19:30:18.171Z,15.90
2018-09-13T19:32:46.465Z,15.80
2018-09-13T19:35:14.700Z,15.60
2018-09-13T19:37:43.146Z,15.50
2018-09-13T19:40:11.613Z,15.60
2018-09-13T19:42:39.734Z,15.40
2018-09-13T19:45:07.866Z,15.40
2018-09-13T19:47:36.143Z,15.30
2018-09-13T19:50:04.268Z,15.30
2018-09-13T19:52:32.503Z,15.20
2018-09-13T19:55:00.760Z,15.20
2018-09-13T19:57:28.876Z,15.10
2018-09-13T19:59:57.050Z,15.10
2018-09-13T20:02:25.160Z,15.00
2018-09-13T20:04:53.333Z,14.90
2018-09-13T20:07:21.399Z,14.80
2018-09-13T20:09:49.515Z,14.80
2018-09-13T20:12:17.788Z,14.60
2018-09-13T20:14:45.768Z,14.60
2018-09-13T20:17:13.889Z,14.60
2018-09-13T20:19:42.096Z,14.50
2018-09-13T20:22:11.587Z,14.40
2018-09-13T20:24:39.776Z,14.40
2018-09-13T20:27:07.994Z,14.30
2018-09-13T20:29:36.529Z,14.30
2018-09-13T20:32:04.699Z,14.30
2018-09-13T20:34:32.825Z,14.30
2018-09-13T20:37:00.945Z,14.30
2018-09-13T20:39:29.082Z,14.20
2018-09-13T20:41:57.398Z,14.20
2018-09-13T20:44:25.524Z,14.10
2018-09-13T20:46:53.854Z,14.10
2018-09-13T20:49:21.990Z,14.00
2018-09-13T20:51:50.112Z,14.00
2018-09-13T20:54:18.274Z,13.90
2018-09-13T20:56:46.425Z,13.80
2018-09-13T20:59:14.589Z,13.80
2018-09-13T21:01:42.753Z,13.80
2018-09-13T21:04:10.942Z,13.80
2018-09-13T21:06:39.093Z,13.70
2018-09-13T21:09:09.174Z,13.70
2018-09-13T21:11:37.306Z,13.70
2018-09-13T21:14:05.408Z,13.70
2018-09-13T21:16:33.499Z,13.70
2018-09-13T21:19:01.656Z,13.60
2018-09-13T21:21:29.759Z,13.60
2018-09-13T21:23:57.873Z,13.60
2018-09-13T21:26:25.966Z,13.60
2018-09-13T21:28:54.084Z,13.60
2018-09-13T21:31:22.248Z,13.60
2018-09-13T21:33:50.365Z,13.50
2018-09-13T21:36:18.509Z,13.50
2018-09-13T21:38:46.655Z,13.40
2018-09-13T21:41:14.789Z,13.40
2018-09-13T21:43:42.899Z,13.40
2018-09-13T21:46:10.998Z,13.40
2018-09-13T21:48:39.091Z,13.30
2018-09-13T21:51:07.184Z,13.10
2018-09-13T21:53:35.339Z,13.20
2018-09-13T21:56:03.416Z,13.10
2018-09-13T21:58:31.503Z,13.00
2018-09-13T22:00:59.616Z,13.00
2018-09-13T22:03:27.718Z,13.00
2018-09-13T22:05:55.844Z,12.90
2018-09-13T22:08:23.976Z,12.90
2018-09-13T22:10:52.079Z,12.90
2018-09-13T22:13:20.179Z,12.90
2018-09-13T22:15:48.284Z,13.00
2018-09-13T22:18:16.393Z,12.90
2018-09-13T22:20:44.496Z,12.80
2018-09-13T22:23:12.599Z,12.90
2018-09-13T22:25:40.705Z,12.90
2018-09-13T22:28:08.839Z,12.90
2018-09-13T22:30:36.989Z,12.80
2018-09-13T22:33:05.217Z,12.70
2018-09-13T22:35:33.345Z,12.70
2018-09-13T22:38:01.478Z,12.70
2018-09-13T22:40:29.632Z,12.60
2018-09-13T22:42:57.741Z,12.60
2018-09-13T22:45:25.865Z,12.60
2018-09-13T22:47:53.986Z,12.60
2018-09-13T22:50:22.090Z,12.60
2018-09-13T22:52:50.212Z,12.60
2018-09-13T22:55:18.316Z,12.50
2018-09-13T22:57:46.441Z,12.50
2018-09-13T23:00:14.535Z,12.40
2018-09-13T23:02:47.485Z,12.40
2018-09-13T23:05:16.135Z,12.40
2018-09-13T23:07:44.517Z,12.30
2018-09-13T23:10:12.646Z,12.30
2018-09-13T23:12:40.766Z,12.20
2018-09-13T23:15:08.896Z,12.20
2018-09-13T23:17:37.266Z,12.20
2018-09-13T23:20:05.491Z,12.20
2018-09-13T23:22:33.596Z,12.20
2018-09-13T23:25:01.833Z,12.10
2018-09-13T23:27:29.936Z,12.10
2018-09-13T23:29:58.044Z,12.10
2018-09-13T23:32:26.458Z,12.10
2018-09-13T23:34:54.559Z,12.10
2018-09-13T23:37:22.681Z,12.10
2018-09-13T23:39:50.900Z,12.10
2018-09-13T23:42:18.884Z,12.10
2018-09-13T23:44:46.994Z,12.00
2018-09-13T23:47:15.109Z,12.00
2018-09-13T23:49:43.216Z,12.00
2018-09-13T23:52:11.325Z,11.90
2018-09-13T23:54:45.972Z,12.00
2018-09-13T23:57:14.086Z,12.00
2018-09-13T23:59:42.209Z,11.90
